Time;durP1;ratioP1;P1;durP2;ratioP2;P2;SDS_P1;SDS_P2;PMS_P1;PMS_P2;Temp;Humidity;BMP_temperature;BMP_pressure;BME280_temperature;BME280_humidity;BME280_pressure;Samples;Min_cycle;Max_cycle;Signal;HPM_P1;HPM_P2
2023/11/02 00:02:24;;;;;;;0.00;0.00;;;9.30;99.90;;;;;;5009868;28;20160;-65
2023/11/02 00:04:50;;;;;;;0.63;0.15;;;9.30;99.90;;;;;;5015444;28;20047;-66
2023/11/02 00:07:18;;;;;;;2.55;0.50;;;9.20;99.90;;;;;;5000276;28;20100;-66
2023/11/02 00:09:44;;;;;;;0.40;0.10;;;9.20;99.90;;;;;;5012183;28;20046;-65
2023/11/02 00:12:23;;;;;;;0.25;0.15;;;9.20;99.90;;;;;;5007371;28;20050;-66
2023/11/02 00:14:53;;;;;;;0.90;0.20;;;9.20;99.90;;;;;;5015400;28;20085;-66
2023/11/02 00:17:35;;;;;;;1.15;0.10;;;9.20;99.90;;;;;;5004693;28;20104;-66
2023/11/02 00:20:08;;;;;;;0.08;0.00;;;9.20;99.90;;;;;;5012193;28;20092;-66
2023/11/02 00:22:43;;;;;;;2.38;0.10;;;9.30;99.90;;;;;;5002684;28;20046;-65
2023/11/02 00:25:09;;;;;;;0.10;0.10;;;9.30;99.90;;;;;;5018868;28;20078;-66
2023/11/02 00:27:35;;;;;;;0.20;0.10;;;9.30;99.90;;;;;;4990184;28;20493;-66
2023/11/02 00:30:02;;;;;;;0.85;0.10;;;9.30;99.90;;;;;;5013477;28;20044;-66
2023/11/02 00:32:28;;;;;;;1.45;0.30;;;9.40;99.90;;;;;;5016075;28;20045;-67
2023/11/02 00:34:53;;;;;;;0.43;0.20;;;9.40;99.90;;;;;;5019898;28;20045;-65
2023/11/02 00:37:19;;;;;;;0.30;0.10;;;9.40;99.90;;;;;;5018621;28;20489;-65
2023/11/02 00:39:45;;;;;;;1.27;0.17;;;9.40;99.90;;;;;;5013620;28;20388;-65
2023/11/02 00:42:13;;;;;;;0.28;0.10;;;9.50;99.90;;;;;;5016184;28;20041;-66
2023/11/02 00:44:40;;;;;;;0.65;0.15;;;9.60;99.90;;;;;;5018874;28;20054;-66
2023/11/02 00:47:06;;;;;;;3.72;0.30;;;9.60;99.90;;;;;;5018902;28;20120;-66
2023/11/02 00:49:32;;;;;;;0.10;0.10;;;9.60;99.90;;;;;;5014187;28;20131;-66
2023/11/02 00:52:00;;;;;;;2.92;0.32;;;9.60;99.90;;;;;;4999637;28;20061;-66
2023/11/02 00:54:44;;;;;;;0.10;0.10;;;9.60;99.90;;;;;;5021453;28;20041;-65
2023/11/02 00:57:14;;;;;;;0.28;0.20;;;9.60;99.90;;;;;;5016156;28;20037;-65
2023/11/02 00:59:40;;;;;;;1.85;0.28;;;9.60;99.90;;;;;;5013023;28;20044;-65
2023/11/02 01:02:10;;;;;;;3.63;0.30;;;9.50;99.90;;;;;;5018285;28;20046;-66
2023/11/02 01:04:44;;;;;;;0.22;0.08;;;9.50;99.90;;;;;;5014919;28;20041;-66
2023/11/02 01:07:11;;;;;;;3.38;0.10;;;9.60;99.90;;;;;;5017416;28;20045;-66
2023/11/02 01:09:39;;;;;;;0.30;0.20;;;9.50;99.90;;;;;;5013328;28;20049;-66
2023/11/02 01:12:05;;;;;;;0.13;0.05;;;9.50;99.90;;;;;;5018371;28;20100;-65
2023/11/02 01:14:47;;;;;;;0.65;0.20;;;9.50;99.90;;;;;;5019923;28;20427;-66
2023/11/02 01:17:27;;;;;;;0.00;0.00;;;9.50;99.90;;;;;;5019171;28;20036;-65
2023/11/02 01:19:57;;;;;;;0.20;0.10;;;9.50;99.90;;;;;;5012796;28;20060;-66
2023/11/02 01:22:29;;;;;;;1.17;0.30;;;9.50;99.90;;;;;;5001927;28;20438;-65
2023/11/02 01:25:03;;;;;;;0.38;0.10;;;9.40;99.90;;;;;;5017935;28;20149;-65
2023/11/02 01:27:29;;;;;;;0.75;0.43;;;9.40;99.90;;;;;;5016377;28;20030;-65
2023/11/02 01:29:55;;;;;;;0.50;0.28;;;9.40;99.90;;;;;;5015554;28;20052;-65
2023/11/02 01:32:21;;;;;;;0.20;0.10;;;9.40;99.90;;;;;;5019722;28;20030;-65
2023/11/02 01:34:47;;;;;;;2.75;0.32;;;9.30;99.90;;;;;;5014843;28;20046;-66
2023/11/02 01:37:13;;;;;;;6.00;0.28;;;9.30;99.90;;;;;;5012571;28;20049;-65
2023/11/02 01:39:44;;;;;;;1.05;0.20;;;9.30;99.90;;;;;;5013993;28;20386;-65
2023/11/02 01:42:14;;;;;;;0.03;0.00;;;9.40;99.90;;;;;;5017996;28;20357;-65
2023/11/02 01:44:53;;;;;;;0.20;0.10;;;9.30;99.90;;;;;;4998913;28;20391;-65
2023/11/02 01:47:53;;;;;;;0.38;0.10;;;9.30;99.90;;;;;;4995180;28;20079;-66
2023/11/02 01:50:45;;;;;;;0.15;0.05;;;9.40;99.90;;;;;;5018194;28;20660;-66
2023/11/02 01:53:23;;;;;;;0.10;0.10;;;9.40;99.90;;;;;;5017795;28;20112;-66
2023/11/02 01:55:52;;;;;;;1.10;0.25;;;9.30;99.90;;;;;;5010153;28;20038;-66
2023/11/02 01:58:45;;;;;;;0.40;0.20;;;9.30;99.90;;;;;;5015085;28;20252;-66
2023/11/02 02:01:53;;;;;;;0.15;0.10;;;9.40;99.90;;;;;;5020080;28;20038;-65
2023/11/02 02:05:01;;;;;;;0.20;0.10;;;9.40;99.90;;;;;;5019199;28;20045;-66
2023/11/02 02:07:39;;;;;;;0.35;0.13;;;9.50;99.90;;;;;;5007111;28;20089;-65
2023/11/02 02:10:12;;;;;;;0.20;0.20;;;9.40;99.90;;;;;;5018952;28;20060;-66
2023/11/02 02:13:09;;;;;;;0.70;0.30;;;9.40;99.90;;;;;;4999481;28;20041;-66
2023/11/02 02:15:50;;;;;;;0.30;0.20;;;9.40;99.90;;;;;;5013298;28;20065;-66
2023/11/02 02:18:35;;;;;;;0.20;0.10;;;9.50;99.90;;;;;;5013544;28;20048;-67
2023/11/02 02:21:28;;;;;;;1.33;0.50;;;9.40;99.90;;;;;;5016226;28;20270;-66
2023/11/02 02:24:25;;;;;;;0.10;0.10;;;9.50;99.90;;;;;;5002363;28;20061;-66
2023/11/02 02:27:46;;;;;;;0.88;0.10;;;9.50;99.90;;;;;;5013299;28;20040;-66
2023/11/02 02:30:24;;;;;;;0.52;0.20;;;9.50;99.90;;;;;;4929083;29;20048;-65
2023/11/02 02:33:18;;;;;;;0.28;0.10;;;9.60;99.90;;;;;;5017626;28;20046;-66
2023/11/02 02:35:47;;;;;;;0.03;0.03;;;9.60;99.90;;;;;;5004571;28;20057;-65
2023/11/02 02:38:18;;;;;;;0.65;0.20;;;9.60;99.90;;;;;;5017386;28;20037;-65
2023/11/02 02:40:59;;;;;;;0.65;0.13;;;9.50;99.90;;;;;;5017793;28;20441;-66
2023/11/02 02:43:27;;;;;;;1.20;0.00;;;9.50;99.90;;;;;;4985349;28;20389;-65
2023/11/02 02:45:55;;;;;;;0.00;0.00;;;9.40;99.90;;;;;;5016165;28;20117;-65
2023/11/02 02:48:23;;;;;;;0.00;0.00;;;9.50;99.90;;;;;;5020362;28;20081;-65
2023/11/02 02:50:57;;;;;;;0.32;0.10;;;9.50;99.90;;;;;;5015199;28;20068;-65
2023/11/02 02:53:27;;;;;;;0.82;0.10;;;9.50;99.90;;;;;;4999036;28;20042;-65
2023/11/02 02:55:58;;;;;;;0.98;0.20;;;9.50;99.90;;;;;;5014532;28;20105;-66
2023/11/02 02:58:26;;;;;;;0.00;0.00;;;9.40;99.90;;;;;;5018002;28;20046;-65
2023/11/02 03:00:53;;;;;;;0.00;0.00;;;9.40;99.90;;;;;;5014188;28;20053;-66
2023/11/02 03:03:23;;;;;;;0.43;0.13;;;9.30;99.90;;;;;;4995253;28;20045;-65
2023/11/02 03:05:52;;;;;;;0.70;0.00;;;9.30;99.90;;;;;;4995785;28;20045;-65
2023/11/02 03:08:20;;;;;;;0.40;0.20;;;9.40;99.90;;;;;;5000786;28;20041;-65
2023/11/02 03:10:47;;;;;;;0.20;0.20;;;9.30;99.90;;;;;;5009154;28;20081;-65
2023/11/02 03:13:16;;;;;;;0.30;0.30;;;9.40;99.90;;;;;;5018154;28;20401;-66
2023/11/02 03:15:45;;;;;;;0.00;0.00;;;9.40;99.90;;;;;;5021313;28;20069;-66
2023/11/02 03:18:12;;;;;;;0.00;0.00;;;9.40;99.90;;;;;;5016797;28;20029;-66
2023/11/02 03:20:40;;;;;;;0.20;0.20;;;9.40;99.90;;;;;;5007779;28;20081;-65
2023/11/02 03:23:36;;;;;;;0.68;0.17;;;9.40;99.90;;;;;;5004756;28;20065;-65
2023/11/02 03:26:33;;;;;;;0.32;0.10;;;9.50;99.90;;;;;;5019747;28;20037;-65
2023/11/02 03:29:24;;;;;;;0.10;0.05;;;9.40;99.90;;;;;;4976294;28;20136;-65
2023/11/02 03:32:11;;;;;;;0.10;0.05;;;9.40;99.90;;;;;;5009848;28;20046;-66
2023/11/02 03:34:39;;;;;;;0.08;0.05;;;9.40;99.90;;;;;;5016881;28;20046;-66
2023/11/02 03:37:15;;;;;;;4.18;0.60;;;9.40;99.90;;;;;;5018594;28;20075;-65
2023/11/02 03:40:20;;;;;;;0.32;0.08;;;9.40;99.90;;;;;;5013838;28;20491;-66
2023/11/02 03:43:04;;;;;;;1.42;0.20;;;9.40;99.90;;;;;;5020509;28;20119;-65
2023/11/02 03:45:56;;;;;;;0.20;0.00;;;9.40;99.90;;;;;;5015925;28;20468;-66
2023/11/02 03:48:43;;;;;;;0.10;0.10;;;9.40;99.90;;;;;;5004562;28;20050;-66
2023/11/02 03:51:17;;;;;;;0.20;0.00;;;9.40;99.90;;;;;;5016064;28;20041;-66
2023/11/02 03:54:05;;;;;;;0.00;0.00;;;9.50;99.90;;;;;;4995677;28;20100;-66
2023/11/02 03:56:41;;;;;;;0.10;0.10;;;9.50;99.90;;;;;;5021446;28;20033;-66
2023/11/02 03:59:13;;;;;;;0.47;0.10;;;9.60;99.90;;;;;;5016623;28;20037;-66
2023/11/02 04:02:07;;;;;;;0.10;0.10;;;9.60;99.90;;;;;;5001310;28;20112;-66
2023/11/02 04:04:40;;;;;;;0.65;0.10;;;9.60;99.90;;;;;;5023766;28;20037;-66
2023/11/02 04:07:30;;;;;;;0.77;0.10;;;9.60;99.90;;;;;;5022734;28;20107;-66
2023/11/02 04:10:07;;;;;;;1.77;0.10;;;9.70;99.90;;;;;;5015390;28;20485;-67
2023/11/02 04:12:51;;;;;;;0.03;0.00;;;9.70;99.90;;;;;;5016785;28;20111;-66
2023/11/02 04:15:18;;;;;;;0.00;0.00;;;9.70;99.90;;;;;;5006289;28;20049;-67
2023/11/02 04:17:44;;;;;;;0.20;0.20;;;9.70;99.90;;;;;;5016260;28;20125;-66
2023/11/02 04:20:10;;;;;;;2.53;0.15;;;9.60;99.90;;;;;;5013971;28;20433;-66
2023/11/02 04:22:37;;;;;;;0.40;0.00;;;9.70;99.90;;;;;;5018048;28;20133;-65
2023/11/02 04:25:03;;;;;;;0.10;0.00;;;9.70;99.90;;;;;;5023716;28;20599;-66
2023/11/02 04:27:29;;;;;;;0.00;0.00;;;9.60;99.90;;;;;;5018111;28;20038;-67
2023/11/02 04:29:55;;;;;;;0.20;0.10;;;9.60;99.90;;;;;;4998049;28;20129;-66
2023/11/02 04:32:21;;;;;;;0.05;0.00;;;9.70;99.90;;;;;;5017876;28;20048;-66
2023/11/02 04:34:47;;;;;;;1.15;0.10;;;9.70;99.90;;;;;;4991581;28;20061;-67
2023/11/02 04:37:16;;;;;;;0.10;0.10;;;9.70;99.90;;;;;;5023020;28;20037;-65
2023/11/02 04:39:42;;;;;;;0.20;0.10;;;9.70;99.90;;;;;;5014884;28;20084;-67
2023/11/02 04:42:09;;;;;;;0.85;0.10;;;9.70;99.90;;;;;;5019830;28;20037;-65
2023/11/02 04:44:35;;;;;;;0.00;0.00;;;9.70;99.90;;;;;;5022419;28;20045;-67
2023/11/02 04:47:01;;;;;;;0.47;0.32;;;9.70;99.90;;;;;;5025143;28;20037;-65
2023/11/02 04:49:26;;;;;;;4.30;0.28;;;9.90;99.90;;;;;;4997065;28;20117;-66
2023/11/02 04:51:57;;;;;;;0.17;0.00;;;9.80;99.90;;;;;;5022833;28;20156;-65
2023/11/02 04:54:30;;;;;;;0.73;0.28;;;9.90;99.90;;;;;;5019339;28;20393;-66
2023/11/02 04:56:56;;;;;;;1.20;0.20;;;9.90;99.90;;;;;;5009320;28;20118;-66
2023/11/02 04:59:22;;;;;;;0.43;0.30;;;10.00;99.90;;;;;;5000746;28;20048;-66
2023/11/02 05:01:48;;;;;;;1.98;0.30;;;10.00;99.90;;;;;;5018381;28;20045;-66
2023/11/02 05:04:14;;;;;;;0.20;0.20;;;10.00;99.90;;;;;;5003616;28;20054;-66
2023/11/02 05:06:41;;;;;;;4.75;0.85;;;10.10;99.90;;;;;;4994338;28;20052;-66
2023/11/02 05:09:07;;;;;;;4.95;0.22;;;10.10;99.90;;;;;;5016105;28;20041;-67
2023/11/02 05:11:33;;;;;;;0.08;0.05;;;10.00;99.90;;;;;;5000209;28;20061;-66
2023/11/02 05:13:59;;;;;;;0.00;0.00;;;10.00;99.90;;;;;;4993958;28;20042;-66
2023/11/02 05:16:24;;;;;;;0.85;0.57;;;10.00;99.90;;;;;;5012596;28;20033;-66
2023/11/02 05:18:50;;;;;;;0.55;0.28;;;10.00;99.90;;;;;;4999303;28;20052;-66
2023/11/02 05:21:16;;;;;;;0.22;0.00;;;10.00;99.90;;;;;;5018699;28;20042;-66
2023/11/02 05:23:42;;;;;;;0.00;0.00;;;10.00;99.90;;;;;;5000369;28;20390;-69
2023/11/02 05:26:08;;;;;;;1.08;0.43;;;10.00;99.90;;;;;;5018875;28;20478;-66
2023/11/02 05:28:33;;;;;;;0.30;0.20;;;10.10;99.90;;;;;;4999723;28;20034;-66
2023/11/02 05:30:59;;;;;;;0.50;0.05;;;10.00;99.90;;;;;;5002105;28;20041;-66
2023/11/02 05:33:25;;;;;;;0.25;0.10;;;10.00;99.90;;;;;;5018467;28;20468;-66
2023/11/02 05:35:51;;;;;;;0.52;0.40;;;10.00;99.90;;;;;;5011806;28;20048;-66
2023/11/02 05:38:18;;;;;;;0.30;0.30;;;10.10;99.90;;;;;;5001053;28;20393;-66
2023/11/02 05:40:47;;;;;;;0.20;0.10;;;10.20;99.90;;;;;;5002268;28;20065;-66
2023/11/02 05:43:13;;;;;;;0.28;0.20;;;10.20;99.90;;;;;;5017655;28;20117;-66
2023/11/02 05:45:39;;;;;;;0.77;0.00;;;10.30;99.90;;;;;;5013195;28;20136;-67
2023/11/02 05:48:05;;;;;;;0.00;0.00;;;10.30;99.90;;;;;;5002393;28;20055;-66
2023/11/02 05:50:31;;;;;;;0.25;0.10;;;10.30;99.90;;;;;;4994193;28;20046;-67
2023/11/02 05:52:56;;;;;;;2.28;0.15;;;10.30;99.90;;;;;;5019498;28;20069;-67
2023/11/02 05:55:22;;;;;;;0.57;0.40;;;10.30;99.90;;;;;;5014372;28;20072;-66
2023/11/02 05:57:48;;;;;;;0.10;0.10;;;10.40;99.90;;;;;;5018462;28;20037;-67
2023/11/02 06:00:14;;;;;;;0.00;0.00;;;10.40;99.90;;;;;;5002978;28;20132;-66
2023/11/02 06:02:40;;;;;;;0.10;0.10;;;10.50;99.90;;;;;;4992607;28;20078;-67
2023/11/02 06:05:07;;;;;;;0.15;0.08;;;10.50;99.90;;;;;;4992933;28;20462;-66
2023/11/02 06:07:34;;;;;;;0.00;0.00;;;10.40;99.90;;;;;;5017969;28;20481;-66
2023/11/02 06:10:00;;;;;;;0.50;0.00;;;10.50;99.90;;;;;;5018263;28;20329;-66
2023/11/02 06:12:27;;;;;;;0.05;0.05;;;10.50;99.90;;;;;;4996933;28;20057;-66
2023/11/02 06:14:52;;;;;;;0.10;0.10;;;10.50;99.90;;;;;;5010926;28;20045;-66
2023/11/02 06:17:18;;;;;;;0.00;0.00;;;10.50;99.90;;;;;;4988571;28;20068;-66
2023/11/02 06:19:44;;;;;;;0.52;0.10;;;10.50;99.90;;;;;;5015250;28;20141;-67
2023/11/02 06:22:09;;;;;;;4.85;0.52;;;10.50;99.90;;;;;;5013551;28;20034;-66
2023/11/02 06:24:37;;;;;;;0.10;0.00;;;10.50;99.90;;;;;;5013403;28;20133;-67
2023/11/02 06:27:04;;;;;;;3.83;0.20;;;10.50;99.90;;;;;;5014637;28;20037;-67
2023/11/02 06:29:29;;;;;;;0.00;0.00;;;10.50;99.90;;;;;;5016375;28;20041;-66
2023/11/02 06:31:55;;;;;;;0.85;0.35;;;10.60;99.90;;;;;;5012291;28;20521;-67
2023/11/02 06:34:21;;;;;;;0.10;0.00;;;10.60;99.90;;;;;;4996229;28;20105;-66
2023/11/02 06:36:47;;;;;;;0.57;0.10;;;10.60;99.90;;;;;;5020289;28;20505;-67
2023/11/02 06:39:19;;;;;;;0.65;0.10;;;10.60;99.90;;;;;;4982899;28;20108;-68
2023/11/02 06:41:45;;;;;;;0.63;0.17;;;10.70;99.90;;;;;;5009756;28;20049;-67
2023/11/02 06:44:11;;;;;;;0.17;0.17;;;10.70;99.90;;;;;;5003510;28;20076;-67
2023/11/02 06:46:37;;;;;;;0.00;0.00;;;10.70;99.90;;;;;;4998804;28;20041;-67
2023/11/02 06:49:03;;;;;;;0.00;0.00;;;10.70;99.90;;;;;;4999327;28;20060;-67
2023/11/02 06:51:28;;;;;;;0.20;0.05;;;10.70;99.90;;;;;;4993191;28;20069;-66
2023/11/02 06:53:54;;;;;;;0.00;0.00;;;10.70;99.90;;;;;;5016627;28;20150;-66
2023/11/02 06:56:22;;;;;;;0.28;0.00;;;10.70;99.90;;;;;;5000774;28;20152;-66
2023/11/02 06:58:48;;;;;;;0.00;0.00;;;10.80;99.90;;;;;;5017379;28;20037;-66
2023/11/02 07:01:14;;;;;;;0.38;0.20;;;10.80;99.90;;;;;;4990757;28;20046;-66
2023/11/02 07:03:39;;;;;;;2.97;0.40;;;10.70;99.90;;;;;;5007285;28;20048;-66
2023/11/02 07:06:06;;;;;;;0.00;0.00;;;10.80;99.90;;;;;;5008994;28;20037;-66
2023/11/02 07:08:32;;;;;;;0.17;0.10;;;10.80;99.90;;;;;;5010120;28;20374;-67
2023/11/02 07:10:58;;;;;;;1.27;0.60;;;10.80;99.90;;;;;;4986122;28;20549;-68
2023/11/02 07:13:23;;;;;;;6.13;0.70;;;10.70;99.90;;;;;;4973823;28;20082;-67
2023/11/02 07:15:50;;;;;;;0.05;0.05;;;10.70;99.90;;;;;;5008382;28;20156;-66
2023/11/02 07:18:16;;;;;;;1.02;0.10;;;10.70;99.90;;;;;;4999984;28;20038;-65
2023/11/02 07:20:41;;;;;;;1.95;0.15;;;10.80;99.90;;;;;;5009335;28;20108;-65
2023/11/02 07:23:08;;;;;;;0.03;0.00;;;10.80;99.90;;;;;;5017297;28;20124;-65
2023/11/02 07:25:33;;;;;;;0.98;0.40;;;10.80;99.90;;;;;;5018534;28;20073;-66
2023/11/02 07:27:59;;;;;;;0.10;0.10;;;10.80;99.90;;;;;;5011161;28;20517;-65
2023/11/02 07:30:25;;;;;;;0.73;0.30;;;10.80;99.90;;;;;;5011399;28;20046;-65
2023/11/02 07:32:51;;;;;;;0.68;0.10;;;10.90;99.90;;;;;;5023537;28;20393;-66
2023/11/02 07:35:16;;;;;;;2.47;0.20;;;10.90;99.90;;;;;;5016729;28;20040;-65
2023/11/02 07:37:42;;;;;;;0.90;0.10;;;10.90;99.90;;;;;;5011622;28;20038;-65
2023/11/02 07:40:08;;;;;;;0.28;0.00;;;10.90;99.90;;;;;;5018613;28;20077;-66
2023/11/02 07:42:34;;;;;;;0.80;0.10;;;10.80;99.90;;;;;;5019139;28;20077;-66
2023/11/02 07:44:59;;;;;;;2.67;0.20;;;10.80;99.90;;;;;;4999778;28;20473;-65
2023/11/02 07:47:25;;;;;;;0.13;0.00;;;10.80;99.90;;;;;;5013281;28;20100;-66
2023/11/02 07:49:51;;;;;;;0.03;0.00;;;10.70;99.90;;;;;;5012202;28;20121;-65
2023/11/02 07:52:17;;;;;;;0.20;0.10;;;10.70;99.90;;;;;;5017297;28;20038;-65
2023/11/02 07:54:43;;;;;;;1.65;0.70;;;10.70;99.90;;;;;;5017428;28;20041;-66
2023/11/02 07:57:09;;;;;;;0.00;0.00;;;10.70;99.90;;;;;;4997578;28;20038;-65
2023/11/02 07:59:38;;;;;;;0.17;0.17;;;10.70;99.90;;;;;;5022050;28;20050;-66
2023/11/02 08:02:05;;;;;;;1.85;0.20;;;10.60;99.90;;;;;;5018106;28;20052;-65
2023/11/02 08:04:30;;;;;;;0.30;0.25;;;10.60;99.90;;;;;;5003069;28;20038;-65
2023/11/02 08:06:56;;;;;;;0.82;0.20;;;10.60;99.90;;;;;;4999783;28;20625;-66
2023/11/02 08:09:22;;;;;;;1.77;0.10;;;10.60;99.90;;;;;;5016114;28;20042;-65
2023/11/02 08:11:48;;;;;;;1.10;0.10;;;10.70;99.90;;;;;;5019145;28;20049;-65
2023/11/02 08:14:14;;;;;;;0.10;0.00;;;10.70;99.90;;;;;;5021688;28;20130;-66
2023/11/02 08:16:43;;;;;;;0.10;0.00;;;10.70;99.90;;;;;;5016788;28;20042;-65
2023/11/02 08:19:09;;;;;;;0.40;0.10;;;10.70;99.90;;;;;;4999064;28;20123;-66
2023/11/02 08:21:35;;;;;;;0.30;0.28;;;10.70;99.90;;;;;;5014717;28;20477;-66
2023/11/02 08:24:01;;;;;;;0.20;0.00;;;10.80;99.90;;;;;;5014483;28;20493;-66
2023/11/02 08:26:26;;;;;;;0.00;0.00;;;10.90;99.90;;;;;;5010912;28;20063;-66
2023/11/02 08:28:53;;;;;;;0.20;0.10;;;11.00;99.90;;;;;;5014074;28;20152;-67
2023/11/02 08:31:26;;;;;;;0.30;0.22;;;11.00;99.90;;;;;;5004521;28;20517;-66
2023/11/02 08:33:52;;;;;;;0.95;0.63;;;11.10;99.90;;;;;;5007167;28;20057;-67
2023/11/02 08:36:20;;;;;;;0.30;0.05;;;11.00;99.90;;;;;;5010046;28;20080;-66
2023/11/02 08:38:46;;;;;;;0.10;0.10;;;11.00;99.90;;;;;;5015260;28;20045;-64
2023/11/02 08:41:25;;;;;;;0.10;0.10;;;11.00;99.90;;;;;;5022586;28;20121;-64
2023/11/02 08:43:51;;;;;;;0.75;0.10;;;11.00;99.90;;;;;;5017765;28;20054;-64
2023/11/02 08:46:25;;;;;;;0.00;0.00;;;11.00;99.90;;;;;;5014218;28;20119;-66
2023/11/02 08:48:54;;;;;;;0.25;0.17;;;11.00;99.90;;;;;;5022502;28;20141;-67
2023/11/02 08:51:21;;;;;;;0.30;0.10;;;11.00;99.90;;;;;;5022472;28;20061;-67
2023/11/02 08:53:47;;;;;;;0.30;0.10;;;11.00;99.90;;;;;;5020203;28;20393;-67
2023/11/02 08:56:14;;;;;;;0.15;0.03;;;10.90;99.90;;;;;;5016939;28;20509;-66
2023/11/02 08:58:44;;;;;;;0.00;0.00;;;11.00;99.90;;;;;;5001747;28;20076;-66
2023/11/02 09:01:11;;;;;;;0.47;0.20;;;11.00;99.90;;;;;;5020215;28;20163;-67
2023/11/02 09:03:38;;;;;;;2.67;0.03;;;11.20;99.90;;;;;;5016590;28;20026;-66
2023/11/02 09:06:07;;;;;;;0.10;0.00;;;11.60;99.90;;;;;;5018628;28;20045;-67
2023/11/02 09:08:35;;;;;;;2.70;0.32;;;11.80;99.90;;;;;;5018989;28;20431;-68
2023/11/02 09:11:02;;;;;;;0.10;0.05;;;12.20;99.90;;;;;;5014652;28;20050;-66
2023/11/02 09:13:29;;;;;;;0.00;0.00;;;12.90;99.90;;;;;;5014576;28;20062;-66
2023/11/02 09:15:55;;;;;;;0.13;0.00;;;13.20;99.90;;;;;;5011519;28;20041;-66
2023/11/02 09:18:22;;;;;;;0.00;0.00;;;12.90;99.90;;;;;;4991533;28;20070;-64
2023/11/02 09:20:49;;;;;;;0.20;0.10;;;13.60;99.90;;;;;;5017854;28;20046;-65
2023/11/02 09:23:16;;;;;;;0.10;0.00;;;14.70;99.90;;;;;;5012557;28;20044;-66
2023/11/02 09:25:42;;;;;;;0.20;0.00;;;14.80;99.90;;;;;;5013364;28;20075;-66
2023/11/02 09:28:08;;;;;;;1.38;0.00;;;14.50;99.90;;;;;;5018904;28;20034;-66
2023/11/02 09:30:34;;;;;;;0.22;0.05;;;14.20;99.90;;;;;;5019672;28;20049;-66
2023/11/02 09:33:00;;;;;;;0.10;0.00;;;13.90;99.90;;;;;;5011380;28;20087;-66
2023/11/02 09:35:27;;;;;;;0.10;0.10;;;13.80;99.90;;;;;;5016217;28;20117;-65
2023/11/02 09:37:53;;;;;;;0.20;0.00;;;13.80;99.90;;;;;;5021901;28;20102;-66
2023/11/02 09:40:19;;;;;;;0.55;0.10;;;13.70;99.90;;;;;;5018455;28;20060;-65
2023/11/02 09:42:45;;;;;;;0.15;0.00;;;13.50;99.90;;;;;;5011019;28;20037;-65
2023/11/02 09:45:15;;;;;;;0.00;0.00;;;13.40;99.90;;;;;;4976536;28;20120;-65
2023/11/02 09:47:42;;;;;;;0.20;0.10;;;13.10;99.90;;;;;;5017992;28;20037;-65
2023/11/02 09:50:08;;;;;;;1.95;0.13;;;12.90;99.90;;;;;;5015905;28;20576;-65
2023/11/02 09:52:35;;;;;;;0.00;0.00;;;12.80;99.90;;;;;;5011646;28;20046;-65
2023/11/02 09:55:02;;;;;;;1.10;0.20;;;12.70;99.90;;;;;;5021178;28;20037;-66
2023/11/02 09:57:31;;;;;;;0.30;0.00;;;12.60;99.90;;;;;;5020337;28;20462;-66
2023/11/02 09:59:58;;;;;;;0.85;0.10;;;12.50;99.90;;;;;;5015582;28;20045;-65
2023/11/02 10:02:24;;;;;;;0.30;0.00;;;12.60;99.90;;;;;;4998673;28;20555;-65
2023/11/02 10:04:50;;;;;;;0.10;0.10;;;12.50;99.90;;;;;;5020429;28;20371;-65
2023/11/02 10:07:17;;;;;;;0.08;0.00;;;12.50;99.90;;;;;;5020833;28;20137;-65
2023/11/02 10:09:47;;;;;;;0.08;0.05;;;12.50;99.90;;;;;;5022151;28;20042;-65
2023/11/02 10:12:13;;;;;;;0.20;0.10;;;12.50;99.90;;;;;;5011448;28;20407;-65
2023/11/02 10:14:39;;;;;;;0.00;0.00;;;12.50;99.90;;;;;;5015636;28;20532;-66
2023/11/02 10:17:06;;;;;;;0.00;0.00;;;12.60;99.90;;;;;;5018648;28;20068;-65
2023/11/02 10:19:32;;;;;;;0.00;0.00;;;12.60;99.90;;;;;;5016549;28;20224;-65
2023/11/02 10:21:58;;;;;;;0.22;0.00;;;12.60;99.90;;;;;;5012772;28;20433;-65
2023/11/02 10:24:34;;;;;;;0.00;0.00;;;12.70;99.90;;;;;;5020179;28;20080;-66
2023/11/02 10:27:04;;;;;;;1.65;0.10;;;12.70;99.90;;;;;;5019651;28;20565;-65
2023/11/02 10:29:30;;;;;;;0.35;0.00;;;12.70;99.90;;;;;;5017399;28;20053;-66
2023/11/02 10:31:57;;;;;;;0.82;0.28;;;12.70;99.90;;;;;;5013367;28;20045;-66
2023/11/02 10:34:25;;;;;;;0.55;0.00;;;12.70;99.90;;;;;;5017006;28;20037;-66
2023/11/02 10:36:53;;;;;;;0.00;0.00;;;12.80;99.90;;;;;;4995766;28;20045;-66
2023/11/02 10:39:20;;;;;;;0.08;0.00;;;12.80;99.90;;;;;;5010719;28;20120;-66
2023/11/02 10:42:00;;;;;;;0.17;0.05;;;12.90;99.90;;;;;;5017021;28;20037;-66
2023/11/02 10:44:31;;;;;;;0.75;0.40;;;12.90;99.90;;;;;;5021915;28;20036;-66
2023/11/02 10:47:01;;;;;;;0.00;0.00;;;13.00;99.90;;;;;;5004085;28;20141;-66
2023/11/02 10:49:37;;;;;;;0.10;0.10;;;13.20;99.90;;;;;;5011266;28;20041;-66
2023/11/02 10:52:07;;;;;;;0.10;0.10;;;13.40;99.90;;;;;;5015863;28;20038;-66
2023/11/02 10:54:54;;;;;;;0.00;0.00;;;13.70;99.90;;;;;;5019338;28;20037;-65
2023/11/02 10:57:22;;;;;;;0.00;0.00;;;13.80;99.90;;;;;;5025120;28;20052;-65
2023/11/02 10:59:48;;;;;;;0.35;0.22;;;13.80;99.90;;;;;;5012040;28;20052;-65
2023/11/02 11:02:18;;;;;;;0.00;0.00;;;13.90;99.90;;;;;;4999478;28;20048;-65
2023/11/02 11:04:47;;;;;;;0.32;0.10;;;14.10;99.90;;;;;;5018300;28;20041;-66
2023/11/02 11:07:13;;;;;;;0.80;0.10;;;14.20;99.90;;;;;;5013486;28;20044;-66
2023/11/02 11:09:42;;;;;;;0.20;0.00;;;14.30;99.90;;;;;;5011159;28;20037;-66
2023/11/02 11:12:09;;;;;;;0.03;0.00;;;14.20;99.90;;;;;;5016939;28;20064;-65
2023/11/02 11:14:37;;;;;;;0.00;0.00;;;14.20;99.90;;;;;;4999723;28;20081;-65
2023/11/02 11:17:04;;;;;;;3.53;0.20;;;14.10;99.90;;;;;;4990371;28;20080;-66
2023/11/02 11:19:36;;;;;;;0.68;0.25;;;14.10;99.90;;;;;;5013070;28;20042;-66
2023/11/02 11:22:07;;;;;;;0.93;0.47;;;14.10;99.90;;;;;;5016644;28;20051;-65
2023/11/02 11:24:33;;;;;;;0.10;0.00;;;14.00;99.90;;;;;;4999881;28;20086;-65
2023/11/02 11:27:02;;;;;;;0.68;0.13;;;14.00;99.90;;;;;;5011493;28;20046;-66
2023/11/02 11:29:41;;;;;;;1.75;0.00;;;14.00;99.90;;;;;;5016295;28;20124;-65
2023/11/02 11:32:26;;;;;;;4.13;0.32;;;14.00;99.90;;;;;;5008119;28;20549;-66
2023/11/02 11:34:58;;;;;;;0.00;0.00;;;14.10;99.90;;;;;;4998925;28;20437;-66
2023/11/02 11:37:44;;;;;;;3.05;0.55;;;14.10;99.90;;;;;;5011166;28;20239;-66
2023/11/02 11:40:25;;;;;;;0.00;0.00;;;14.10;99.90;;;;;;5011100;28;20042;-66
2023/11/02 11:43:18;;;;;;;0.20;0.20;;;14.10;99.90;;;;;;5008438;28;20100;-65
2023/11/02 11:45:45;;;;;;;0.30;0.08;;;14.10;99.90;;;;;;5017217;28;20046;-66
2023/11/02 11:48:31;;;;;;;0.38;0.00;;;14.10;99.90;;;;;;5008177;28;20049;-65
2023/11/02 11:51:03;;;;;;;0.35;0.17;;;14.10;99.90;;;;;;5013178;28;20049;-66
2023/11/02 11:53:28;;;;;;;0.75;0.55;;;14.10;99.90;;;;;;4993022;28;20080;-66
2023/11/02 11:55:56;;;;;;;2.28;0.20;;;14.00;99.90;;;;;;5015735;28;20494;-66
2023/11/02 11:58:44;;;;;;;0.65;0.17;;;14.10;99.90;;;;;;4995019;28;20111;-66
2023/11/02 12:01:18;;;;;;;0.55;0.30;;;14.10;99.90;;;;;;5007619;28;20042;-66
2023/11/02 12:03:47;;;;;;;0.27;0.13;;;14.10;99.90;;;;;;5009151;28;20456;-66
2023/11/02 12:06:15;;;;;;;4.15;0.30;;;14.20;99.90;;;;;;5007063;28;20446;-65
2023/11/02 12:08:50;;;;;;;0.00;0.00;;;14.10;99.90;;;;;;4998331;28;20049;-66
2023/11/02 12:11:25;;;;;;;3.58;0.35;;;14.10;99.90;;;;;;5011895;28;20499;-66
2023/11/02 12:13:57;;;;;;;0.30;0.22;;;14.10;99.90;;;;;;4984743;28;20053;-66
2023/11/02 12:16:30;;;;;;;0.43;0.05;;;14.20;99.90;;;;;;5014917;28;20042;-66
2023/11/02 12:18:56;;;;;;;0.17;0.00;;;14.20;99.90;;;;;;5017129;28;20034;-66
2023/11/02 12:21:24;;;;;;;0.00;0.00;;;14.30;99.90;;;;;;4994277;28;20037;-66
2023/11/02 12:23:50;;;;;;;0.00;0.00;;;14.30;99.90;;;;;;5012824;28;20088;-66
2023/11/02 12:26:24;;;;;;;0.10;0.00;;;14.40;99.90;;;;;;5013719;28;20512;-66
2023/11/02 12:29:09;;;;;;;0.75;0.63;;;14.50;99.90;;;;;;4991668;28;20045;-66
2023/11/02 12:31:39;;;;;;;0.20;0.03;;;14.50;99.90;;;;;;5022207;28;20057;-66
2023/11/02 12:34:10;;;;;;;0.10;0.10;;;14.60;99.90;;;;;;5013410;28;20051;-66
2023/11/02 12:36:38;;;;;;;0.28;0.08;;;14.60;99.90;;;;;;5016022;28;20045;-65
2023/11/02 12:39:11;;;;;;;2.00;0.15;;;14.50;99.90;;;;;;5011018;28;20030;-65
2023/11/02 12:41:37;;;;;;;2.67;0.50;;;14.40;99.90;;;;;;5021382;28;20110;-66
2023/11/02 12:44:12;;;;;;;2.38;0.22;;;14.40;99.90;;;;;;5009634;28;20033;-66
2023/11/02 12:46:45;;;;;;;0.40;0.00;;;14.40;99.90;;;;;;5011507;28;21800;-66
2023/11/02 12:49:18;;;;;;;1.08;0.00;;;14.30;99.90;;;;;;4992267;28;20034;-66
2023/11/02 12:51:50;;;;;;;2.83;0.13;;;14.40;99.90;;;;;;5008148;28;20506;-66
2023/11/02 12:54:17;;;;;;;0.28;0.10;;;14.30;99.90;;;;;;5011584;28;20129;-66
2023/11/02 12:56:49;;;;;;;0.98;0.38;;;14.30;99.90;;;;;;5012135;28;20460;-66
2023/11/02 12:59:16;;;;;;;0.28;0.00;;;14.20;99.90;;;;;;5013125;28;20050;-66
2023/11/02 13:01:59;;;;;;;0.40;0.10;;;14.20;99.90;;;;;;5015585;28;20457;-66
2023/11/02 13:04:45;;;;;;;0.38;0.22;;;14.20;99.90;;;;;;4993950;28;20050;-66
2023/11/02 13:07:25;;;;;;;2.25;0.10;;;14.30;99.90;;;;;;5016800;28;20038;-67
2023/11/02 13:10:20;;;;;;;1.17;0.10;;;14.40;99.90;;;;;;5005415;28;20074;-67